Time;durP1;ratioP1;P1;durP2;ratioP2;P2;SDS_P1;SDS_P2;PMS_P1;PMS_P2;Temp;Humidity;BMP_temperature;BMP_pressure;BME280_temperature;BME280_humidity;BME280_pressure;Samples;Min_cycle;Max_cycle;Signal;HPM_P1;HPM_P2
2022/06/10 00:00:45;;;;;;;5.30;2.00;;;11.60;81.70;;;;;;5052847;28;20028;-76
2022/06/10 00:03:12;;;;;;;10.90;2.15;;;11.60;81.50;;;;;;5052651;28;20039;-76
2022/06/10 00:05:39;;;;;;;5.18;2.25;;;11.50;82.00;;;;;;5052850;28;20021;-76
2022/06/10 00:08:08;;;;;;;4.90;2.00;;;11.40;82.10;;;;;;5052700;28;20381;-76
2022/06/10 00:10:34;;;;;;;7.28;1.70;;;11.40;82.20;;;;;;5052737;28;20131;-76
2022/06/10 00:13:01;;;;;;;6.13;1.92;;;11.40;82.30;;;;;;5052456;28;20498;-76
2022/06/10 00:15:26;;;;;;;5.70;2.38;;;11.30;82.50;;;;;;5052737;28;20029;-76
2022/06/10 00:17:52;;;;;;;6.93;1.58;;;11.30;82.80;;;;;;5052777;28;20060;-76
2022/06/10 00:20:19;;;;;;;4.63;1.52;;;11.20;82.70;;;;;;5034570;28;20108;-76
2022/06/10 00:22:45;;;;;;;8.98;1.80;;;11.20;82.70;;;;;;5052604;28;20446;-76
2022/06/10 00:25:11;;;;;;;3.65;1.75;;;11.30;82.50;;;;;;5052758;28;20049;-77
2022/06/10 00:27:37;;;;;;;5.35;1.55;;;11.20;82.70;;;;;;5052766;28;20104;-76
2022/06/10 00:30:06;;;;;;;5.40;2.10;;;11.20;82.90;;;;;;5052508;28;20071;-76
2022/06/10 00:32:31;;;;;;;5.25;1.92;;;11.20;82.90;;;;;;5052475;28;20040;-76
2022/06/10 00:34:57;;;;;;;3.80;1.90;;;11.20;82.80;;;;;;5052517;28;20036;-77
2022/06/10 00:37:22;;;;;;;5.47;1.70;;;11.20;82.90;;;;;;5052522;28;20033;-76
2022/06/10 00:39:48;;;;;;;8.48;1.83;;;11.30;82.80;;;;;;5034575;28;20036;-76
2022/06/10 00:42:14;;;;;;;6.15;2.10;;;11.20;82.40;;;;;;5052539;28;20128;-76
2022/06/10 00:44:44;;;;;;;5.95;2.20;;;11.20;82.60;;;;;;5052550;28;20021;-76
2022/06/10 00:47:33;;;;;;;8.50;2.25;;;11.10;82.90;;;;;;5052635;28;20037;-76
2022/06/10 00:50:09;;;;;;;5.68;1.92;;;11.10;83.00;;;;;;5052223;28;20112;-75
2022/06/10 00:52:39;;;;;;;5.05;1.85;;;11.10;82.90;;;;;;5052374;28;20052;-75
2022/06/10 00:55:07;;;;;;;7.10;2.33;;;11.10;83.00;;;;;;5052463;28;20052;-75
2022/06/10 00:57:40;;;;;;;5.45;1.83;;;11.00;83.00;;;;;;5052228;28;20021;-75
2022/06/10 01:00:16;;;;;;;6.78;2.13;;;11.10;83.00;;;;;;5053101;28;20048;-74
2022/06/10 01:02:42;;;;;;;6.55;2.00;;;11.00;83.20;;;;;;5056558;28;20529;-75
2022/06/10 01:05:28;;;;;;;9.10;2.00;;;11.00;83.10;;;;;;5056144;28;20025;-76
2022/06/10 01:08:02;;;;;;;6.88;1.98;;;11.00;83.10;;;;;;5055939;28;20025;-77
2022/06/10 01:10:29;;;;;;;6.20;2.00;;;11.00;83.00;;;;;;5055825;28;20437;-76
2022/06/10 01:13:14;;;;;;;3.22;1.70;;;11.00;82.80;;;;;;5055840;28;20112;-76
2022/06/10 01:15:55;;;;;;;6.95;2.00;;;11.00;82.70;;;;;;5056480;28;20077;-76
2022/06/10 01:18:31;;;;;;;6.35;2.97;;;10.90;82.90;;;;;;5055976;28;20037;-76
2022/06/10 01:21:18;;;;;;;2.97;1.77;;;10.90;82.90;;;;;;5055702;28;20017;-76
2022/06/10 01:24:19;;;;;;;6.47;1.88;;;10.80;83.20;;;;;;5055649;28;20025;-76
2022/06/10 01:30:17;;;;;;;7.50;2.38;;;10.70;84.10;;;;;;5055862;28;20059;-76
2022/06/10 01:33:02;;;;;;;7.82;2.10;;;10.70;83.90;;;;;;5055321;28;20441;-77
2022/06/10 01:35:49;;;;;;;8.98;2.55;;;10.70;84.00;;;;;;5055685;28;20035;-76
2022/06/10 01:38:42;;;;;;;8.02;2.30;;;10.60;83.90;;;;;;5055586;28;20469;-76
2022/06/10 01:41:37;;;;;;;3.72;2.10;;;10.60;84.10;;;;;;5055413;28;20031;-75
2022/06/10 01:44:30;;;;;;;10.30;2.42;;;10.60;84.00;;;;;;5055452;28;20420;-76
2022/06/10 01:46:59;;;;;;;8.70;2.60;;;10.60;83.80;;;;;;5055421;28;20017;-76
2022/06/10 01:49:34;;;;;;;8.88;2.70;;;10.50;84.40;;;;;;5055175;28;20466;-76
2022/06/10 01:52:02;;;;;;;5.88;2.35;;;10.50;84.60;;;;;;5054949;28;20087;-76
2022/06/10 01:55:03;;;;;;;7.55;2.25;;;10.50;84.60;;;;;;5055221;28;20029;-76
2022/06/10 01:57:40;;;;;;;4.30;2.38;;;10.50;84.50;;;;;;5055208;28;20421;-76
2022/06/10 02:00:14;;;;;;;5.35;2.10;;;10.40;84.40;;;;;;5054943;28;20017;-76
2022/06/10 02:02:47;;;;;;;5.20;1.88;;;10.40;84.30;;;;;;5055145;28;20060;-77
2022/06/10 02:05:19;;;;;;;7.00;2.20;;;10.40;84.50;;;;;;5054908;28;20445;-76
2022/06/10 02:07:58;;;;;;;3.38;1.95;;;10.40;84.50;;;;;;5054886;28;20021;-76
2022/06/10 02:10:39;;;;;;;7.75;2.50;;;10.30;84.70;;;;;;5054698;28;20021;-76
2022/06/10 02:13:11;;;;;;;6.32;2.08;;;10.20;85.00;;;;;;5053801;28;20056;-77
2022/06/10 02:15:52;;;;;;;7.47;2.22;;;10.20;85.30;;;;;;5054690;28;20060;-76
2022/06/10 02:18:28;;;;;;;8.35;2.67;;;10.10;85.60;;;;;;5054687;28;20021;-76
2022/06/10 02:20:59;;;;;;;4.90;2.03;;;10.10;85.70;;;;;;5036743;28;20481;-76
2022/06/10 02:23:28;;;;;;;6.57;2.40;;;10.00;85.80;;;;;;5036769;28;20311;-76
2022/06/10 02:25:59;;;;;;;7.80;2.40;;;10.10;85.80;;;;;;5054749;28;20082;-76
2022/06/10 02:28:36;;;;;;;8.70;2.28;;;10.10;85.70;;;;;;5073748;28;20016;-76
2022/06/10 02:31:16;;;;;;;6.40;2.40;;;10.10;85.60;;;;;;5062081;28;20025;-76
2022/06/10 02:33:42;;;;;;;8.05;2.38;;;10.10;85.30;;;;;;5054335;28;20044;-76
2022/06/10 02:36:29;;;;;;;4.47;2.72;;;10.10;85.30;;;;;;5054362;28;20029;-76
2022/06/10 02:39:03;;;;;;;6.78;2.10;;;10.10;85.60;;;;;;5054342;28;20028;-76
2022/06/10 02:41:41;;;;;;;7.97;2.40;;;10.10;85.70;;;;;;5054150;28;20025;-76
2022/06/10 02:44:44;;;;;;;8.48;2.65;;;10.10;85.70;;;;;;5054347;28;20028;-76
2022/06/10 02:47:40;;;;;;;14.02;2.70;;;10.10;85.70;;;;;;5036319;28;20021;-76
2022/06/10 02:50:12;;;;;;;;;;;10.10;85.60;;;;;;5054378;28;20049;-76
2022/06/10 02:52:39;;;;;;;7.28;2.72;;;10.10;85.40;;;;;;5054109;28;19919;-76
2022/06/10 02:55:07;;;;;;;9.90;2.50;;;10.10;85.60;;;;;;5053890;28;20076;-76
2022/06/10 03:03:26;;;;;;;5.72;2.38;;;10.00;85.20;;;;;;5054127;28;20155;-76
2022/06/10 03:06:09;;;;;;;6.20;2.47;;;10.00;85.50;;;;;;5053966;28;20028;-76
2022/06/10 03:08:36;;;;;;;5.82;2.42;;;9.90;85.70;;;;;;5053887;28;20021;-77
2022/06/10 03:11:17;;;;;;;8.65;2.67;;;10.00;85.70;;;;;;5053699;28;20056;-76
2022/06/10 03:14:17;;;;;;;5.95;2.70;;;10.00;85.80;;;;;;5053631;28;20041;-76
2022/06/10 03:16:53;;;;;;;7.18;2.47;;;10.00;85.70;;;;;;5053540;28;20029;-75
2022/06/10 03:19:35;;;;;;;8.20;2.95;;;10.10;85.70;;;;;;5053501;28;20527;-76
2022/06/10 03:22:12;;;;;;;8.93;2.45;;;10.00;85.30;;;;;;5053709;28;20025;-76
2022/06/10 03:24:58;;;;;;;9.00;3.65;;;10.00;85.20;;;;;;5053468;28;20040;-76
2022/06/10 03:27:32;;;;;;;8.45;2.30;;;9.90;85.30;;;;;;5052563;28;20175;-76
2022/06/10 03:30:14;;;;;;;4.33;2.60;;;9.90;85.40;;;;;;5053331;28;20029;-76
2022/06/10 03:32:53;;;;;;;6.57;2.75;;;9.90;85.50;;;;;;5053397;28;20028;-78
2022/06/10 03:35:41;;;;;;;9.30;2.80;;;9.90;85.70;;;;;;5053191;28;20021;-76
2022/06/10 03:38:07;;;;;;;5.15;2.50;;;9.90;85.50;;;;;;5053293;28;20374;-77
2022/06/10 03:40:33;;;;;;;14.30;2.67;;;10.00;86.40;;;;;;5053119;28;20126;-77
2022/06/10 03:43:03;;;;;;;8.73;2.72;;;9.90;85.70;;;;;;5053205;28;20454;-76
2022/06/10 03:45:41;;;;;;;8.32;2.88;;;9.90;85.70;;;;;;5053090;28;20024;-76
2022/06/10 03:48:07;;;;;;;7.10;2.55;;;9.90;85.80;;;;;;5052765;28;20037;-77
2022/06/10 03:50:38;;;;;;;8.85;2.80;;;9.90;86.00;;;;;;5033032;28;20072;-76
2022/06/10 03:53:04;;;;;;;6.18;3.13;;;9.90;85.80;;;;;;5033067;28;20478;-77
2022/06/10 03:55:30;;;;;;;6.32;2.50;;;10.00;85.50;;;;;;5033512;28;20360;-76
2022/06/10 03:57:55;;;;;;;9.43;3.00;;;10.00;85.50;;;;;;5048793;28;20025;-76
2022/06/10 04:00:25;;;;;;;7.35;2.35;;;10.10;85.40;;;;;;5045877;28;20032;-76
2022/06/10 04:02:51;;;;;;;13.93;3.40;;;10.10;85.10;;;;;;5033050;28;20076;-76
2022/06/10 04:05:17;;;;;;;8.55;2.70;;;10.10;85.10;;;;;;5032888;28;20033;-76
2022/06/10 04:07:43;;;;;;;7.72;2.70;;;10.00;85.20;;;;;;5032914;28;20030;-76
2022/06/10 04:10:14;;;;;;;9.10;2.78;;;10.10;85.40;;;;;;5033025;28;20040;-76
2022/06/10 04:12:40;;;;;;;5.60;2.35;;;10.20;84.80;;;;;;5032965;28;20091;-77
2022/06/10 04:15:06;;;;;;;9.38;3.17;;;10.30;84.60;;;;;;5032749;28;20057;-76
2022/06/10 04:17:32;;;;;;;8.23;2.83;;;10.20;84.40;;;;;;5032795;28;20496;-77
2022/06/10 04:19:59;;;;;;;3.85;2.22;;;10.30;84.50;;;;;;5032863;28;20034;-77
2022/06/10 04:22:25;;;;;;;7.10;2.55;;;10.30;84.10;;;;;;5032835;28;20040;-77
2022/06/10 04:24:51;;;;;;;13.52;3.35;;;10.40;84.20;;;;;;5015144;28;20037;-77
2022/06/10 04:27:16;;;;;;;8.77;2.67;;;10.40;84.00;;;;;;5032842;28;20121;-77
2022/06/10 04:29:42;;;;;;;6.03;2.55;;;10.50;83.80;;;;;;5032837;28;20025;-77
2022/06/10 04:32:08;;;;;;;10.00;2.65;;;10.60;83.60;;;;;;5043745;28;20017;-77
2022/06/10 04:34:34;;;;;;;12.30;2.45;;;10.60;83.40;;;;;;5050598;28;20025;-76
2022/06/10 04:36:59;;;;;;;9.32;2.60;;;10.60;83.60;;;;;;5049529;28;20079;-77
2022/06/10 04:39:25;;;;;;;6.28;2.95;;;10.60;83.50;;;;;;5051481;28;20040;-78
2022/06/10 04:41:50;;;;;;;7.70;2.03;;;10.70;83.40;;;;;;5041759;28;20032;-77
2022/06/10 04:44:16;;;;;;;9.25;2.45;;;10.80;82.90;;;;;;5036760;28;20034;-77
2022/06/10 04:46:43;;;;;;;9.10;2.72;;;10.90;82.90;;;;;;5036473;28;20037;-76
2022/06/10 04:49:09;;;;;;;6.43;2.28;;;10.90;83.40;;;;;;5027109;28;20418;-76
2022/06/10 04:51:36;;;;;;;5.40;2.20;;;11.00;82.50;;;;;;5055947;28;20113;-77
2022/06/10 04:54:03;;;;;;;7.88;2.20;;;11.20;82.30;;;;;;5056092;28;20033;-76
2022/06/10 04:56:30;;;;;;;5.10;2.38;;;11.20;81.80;;;;;;5038232;28;20021;-76
2022/06/10 04:58:56;;;;;;;6.80;2.65;;;11.30;81.70;;;;;;5038336;28;20082;-76
2022/06/10 05:01:21;;;;;;;10.32;2.45;;;11.40;81.50;;;;;;5056072;28;20377;-76
2022/06/10 05:03:47;;;;;;;5.32;2.17;;;11.40;81.80;;;;;;5056130;28;20028;-77
2022/06/10 05:06:12;;;;;;;13.40;3.22;;;11.50;81.70;;;;;;5056085;28;20060;-77
2022/06/10 05:08:38;;;;;;;5.75;2.10;;;11.70;81.60;;;;;;5055823;28;20025;-77
2022/06/10 05:11:04;;;;;;;8.20;2.63;;;11.80;81.20;;;;;;5055878;28;20032;-77
2022/06/10 05:13:29;;;;;;;5.72;2.15;;;11.90;80.80;;;;;;5037964;28;20118;-77
2022/06/10 05:15:55;;;;;;;5.97;2.30;;;12.00;80.00;;;;;;5055673;28;20017;-77
2022/06/10 05:18:24;;;;;;;9.70;2.80;;;12.10;79.70;;;;;;5055685;28;20029;-77
2022/06/10 05:20:50;;;;;;;8.40;2.50;;;12.20;79.40;;;;;;5055739;28;20021;-76
2022/06/10 05:23:19;;;;;;;7.80;2.33;;;12.30;79.40;;;;;;5055705;28;20028;-76
2022/06/10 05:25:45;;;;;;;7.72;2.28;;;12.50;79.00;;;;;;5055504;28;20374;-77
2022/06/10 05:28:12;;;;;;;6.43;2.25;;;12.60;78.50;;;;;;5055244;28;20082;-76
2022/06/10 05:30:37;;;;;;;8.80;2.72;;;12.70;78.30;;;;;;5055509;28;20017;-77
2022/06/10 05:33:05;;;;;;;11.40;2.33;;;12.80;78.90;;;;;;5055483;28;20496;-77
2022/06/10 05:35:31;;;;;;;6.90;2.28;;;12.80;77.50;;;;;;5055326;28;20021;-77
2022/06/10 05:37:57;;;;;;;8.57;1.92;;;13.00;77.20;;;;;;5055349;28;20103;-77
2022/06/10 05:40:27;;;;;;;8.43;2.42;;;13.10;77.00;;;;;;5055250;28;20025;-78
2022/06/10 05:42:52;;;;;;;6.90;2.03;;;13.20;76.70;;;;;;5055345;28;20036;-77
2022/06/10 05:45:19;;;;;;;5.95;1.85;;;13.30;76.50;;;;;;5055089;28;20055;-78
2022/06/10 05:47:48;;;;;;;6.03;1.75;;;13.50;76.40;;;;;;5036001;28;20021;-78
2022/06/10 05:50:19;;;;;;;6.40;2.00;;;13.60;76.30;;;;;;5054841;28;20037;-78
2022/06/10 05:52:45;;;;;;;8.30;2.38;;;13.80;76.00;;;;;;5054916;28;20075;-78
2022/06/10 05:55:11;;;;;;;6.22;1.95;;;13.80;75.50;;;;;;5054895;28;20025;-78
2022/06/10 05:57:38;;;;;;;4.70;1.60;;;14.00;75.60;;;;;;5054866;28;20065;-77
2022/06/10 06:00:26;;;;;;;3.70;1.70;;;14.20;75.10;;;;;;5054655;28;20424;-78
2022/06/10 06:02:51;;;;;;;8.52;2.40;;;14.40;74.80;;;;;;5054816;28;20025;-79
2022/06/10 06:05:18;;;;;;;9.95;2.25;;;14.50;74.40;;;;;;5054771;28;20536;-78
2022/06/10 06:07:44;;;;;;;7.45;1.70;;;14.60;73.40;;;;;;5054629;28;20442;-79
2022/06/10 06:10:16;;;;;;;5.53;1.67;;;14.70;72.40;;;;;;5054615;28;20052;-78
2022/06/10 06:12:42;;;;;;;6.32;1.77;;;14.80;72.60;;;;;;5054555;28;20045;-79
2022/06/10 06:15:09;;;;;;;6.82;2.15;;;15.00;72.40;;;;;;5054322;28;20025;-79
2022/06/10 06:17:35;;;;;;;5.18;1.58;;;15.10;72.20;;;;;;5054907;28;20456;-78
2022/06/10 06:20:00;;;;;;;4.90;1.65;;;15.30;71.60;;;;;;5054274;28;20017;-78
2022/06/10 06:22:26;;;;;;;9.13;2.15;;;15.50;70.90;;;;;;5054344;28;20025;-78
2022/06/10 06:24:53;;;;;;;5.20;1.70;;;15.60;70.20;;;;;;5054245;28;20087;-78
2022/06/10 06:27:18;;;;;;;8.30;2.33;;;15.80;70.60;;;;;;5054267;28;20013;-78
2022/06/10 06:29:45;;;;;;;9.35;2.20;;;15.90;68.50;;;;;;5054165;28;20559;-78
2022/06/10 06:32:10;;;;;;;6.50;1.98;;;16.00;67.20;;;;;;5059034;28;20032;-79
2022/06/10 06:34:38;;;;;;;6.75;1.77;;;16.00;67.20;;;;;;5052587;28;20089;-78
2022/06/10 06:37:04;;;;;;;4.53;1.90;;;16.10;66.90;;;;;;5054625;28;20456;-77
2022/06/10 06:39:29;;;;;;;7.90;2.10;;;16.20;66.40;;;;;;5053778;28;20527;-77
2022/06/10 06:41:56;;;;;;;7.22;1.63;;;16.30;65.40;;;;;;5054256;28;20025;-77
2022/06/10 06:44:22;;;;;;;5.50;1.50;;;16.30;64.90;;;;;;5036094;28;20025;-78
2022/06/10 06:46:48;;;;;;;10.25;2.78;;;16.30;63.60;;;;;;5053552;28;20485;-79
2022/06/10 06:49:22;;;;;;;5.72;1.63;;;16.40;63.20;;;;;;5053479;28;20061;-77
2022/06/10 06:51:47;;;;;;;7.70;1.98;;;16.50;63.00;;;;;;5053477;28;20482;-77
2022/06/10 06:54:13;;;;;;;6.20;1.80;;;16.50;62.90;;;;;;5053683;28;20087;-78
2022/06/10 06:56:39;;;;;;;8.38;2.03;;;16.60;62.70;;;;;;5053556;28;20021;-77
2022/06/10 06:59:06;;;;;;;8.43;1.95;;;16.70;62.70;;;;;;5053060;28;20052;-78
2022/06/10 07:01:32;;;;;;;5.68;1.65;;;16.80;62.60;;;;;;5053028;28;20037;-76
2022/06/10 07:03:57;;;;;;;7.95;1.65;;;16.90;63.40;;;;;;5052951;28;20024;-77
2022/06/10 07:06:23;;;;;;;7.72;1.60;;;17.10;62.90;;;;;;5053555;28;20473;-76
2022/06/10 07:08:50;;;;;;;6.53;2.00;;;17.20;60.60;;;;;;5053366;28;20111;-76
2022/06/10 07:11:16;;;;;;;6.00;1.52;;;17.20;60.10;;;;;;5053533;28;20028;-79
2022/06/10 07:13:41;;;;;;;6.18;1.20;;;17.30;60.10;;;;;;5035285;28;20040;-80
2022/06/10 07:16:08;;;;;;;3.47;1.52;;;17.40;61.00;;;;;;5053054;28;20025;-80
2022/06/10 07:18:34;;;;;;;8.55;2.20;;;17.60;61.20;;;;;;5053132;28;20029;-80
2022/06/10 07:21:00;;;;;;;5.90;1.65;;;17.70;60.80;;;;;;5035353;28;20094;-79
2022/06/10 07:23:27;;;;;;;6.05;2.00;;;17.80;60.60;;;;;;5053098;28;20028;-80
2022/06/10 07:25:53;;;;;;;22.85;2.53;;;18.00;60.40;;;;;;5053405;28;20052;-79
2022/06/10 07:28:19;;;;;;;9.98;2.67;;;18.20;62.40;;;;;;5035343;28;20060;-75
2022/06/10 07:30:45;;;;;;;9.32;2.10;;;18.40;65.10;;;;;;5053307;28;20064;-75
2022/06/10 07:33:12;;;;;;;9.48;1.55;;;18.60;62.10;;;;;;5052895;28;20064;-75
2022/06/10 07:35:39;;;;;;;4.68;1.38;;;18.60;55.50;;;;;;5052778;28;20500;-76
2022/06/10 07:38:07;;;;;;;10.07;1.83;;;18.70;56.70;;;;;;5052982;28;20032;-76
2022/06/10 07:43:27;;;;;;;8.77;1.90;;;19.00;54.40;;;;;;5053177;28;20079;-76
2022/06/10 07:45:54;;;;;;;8.85;1.73;;;18.90;53.30;;;;;;5052923;28;20834;-75
2022/06/10 07:48:19;;;;;;;7.00;1.70;;;19.20;52.80;;;;;;5053011;28;20107;-75
2022/06/10 07:50:46;;;;;;;8.82;1.88;;;19.30;50.90;;;;;;5052803;28;20059;-76
2022/06/10 07:53:12;;;;;;;5.25;1.30;;;19.60;51.20;;;;;;5052744;28;20033;-75
2022/06/10 07:55:39;;;;;;;7.22;1.55;;;19.80;50.00;;;;;;5053073;28;20021;-76
2022/06/10 07:58:05;;;;;;;7.40;2.35;;;20.10;49.00;;;;;;5052691;28;20036;-75
2022/06/10 08:00:34;;;;;;;6.47;1.50;;;20.20;47.50;;;;;;5052496;28;20389;-75
2022/06/10 08:03:00;;;;;;;7.88;1.75;;;20.30;44.80;;;;;;5052759;28;20032;-74
2022/06/10 08:05:26;;;;;;;6.45;1.63;;;20.40;46.40;;;;;;5052595;28;20021;-75
2022/06/10 08:07:51;;;;;;;9.32;1.75;;;20.40;44.20;;;;;;5052414;28;20036;-75
2022/06/10 08:10:21;;;;;;;10.32;1.50;;;20.40;46.30;;;;;;5051564;28;20413;-75
2022/06/10 08:12:46;;;;;;;6.40;1.60;;;20.50;46.30;;;;;;5052447;28;20079;-75
2022/06/10 08:15:14;;;;;;;5.93;1.63;;;20.70;46.50;;;;;;5052518;28;20053;-75
2022/06/10 08:17:40;;;;;;;4.30;1.25;;;20.80;45.90;;;;;;5034389;28;20029;-75
2022/06/10 08:20:06;;;;;;;5.68;1.30;;;21.00;45.40;;;;;;5052530;28;20017;-76
2022/06/10 08:22:32;;;;;;;5.97;1.50;;;21.10;44.10;;;;;;5052574;28;20499;-75
2022/06/10 08:24:59;;;;;;;6.32;2.03;;;21.30;43.70;;;;;;5034319;28;20044;-80
2022/06/10 08:27:25;;;;;;;7.00;1.33;;;21.30;43.50;;;;;;5034955;28;20028;-81
2022/06/10 08:29:51;;;;;;;7.82;1.98;;;21.10;44.10;;;;;;5034846;28;20036;-81
2022/06/10 08:32:17;;;;;;;8.40;2.20;;;21.10;45.10;;;;;;5034757;28;20025;-80
2022/06/10 08:34:42;;;;;;;6.40;1.55;;;21.10;45.40;;;;;;5033513;28;20033;-80
2022/06/10 08:37:13;;;;;;;6.05;1.50;;;20.90;44.10;;;;;;5021454;28;20391;-80
2022/06/10 08:39:39;;;;;;;5.47;1.55;;;20.70;44.40;;;;;;5023454;28;20025;-80
2022/06/10 08:42:18;;;;;;;6.15;1.30;;;20.80;46.00;;;;;;5024068;28;20568;-80
2022/06/10 08:44:56;;;;;;;6.22;1.33;;;20.70;44.30;;;;;;5022842;28;20048;-79
2022/06/10 08:47:46;;;;;;;7.50;1.83;;;20.60;45.10;;;;;;5022507;28;20124;-81
2022/06/10 08:50:36;;;;;;;9.65;1.63;;;20.60;46.50;;;;;;5025455;28;20045;-81
2022/06/10 08:53:41;;;;;;;7.60;1.40;;;20.70;45.40;;;;;;5034251;28;20033;-80
2022/06/10 08:56:18;;;;;;;4.78;1.55;;;20.60;43.40;;;;;;5034292;28;20017;-80
2022/06/10 08:59:08;;;;;;;7.85;1.48;;;20.40;45.70;;;;;;5034063;28;20025;-81
2022/06/10 09:01:55;;;;;;;7.78;0.98;;;20.40;44.40;;;;;;5034364;28;20024;-81
2022/06/10 09:04:27;;;;;;;8.02;1.92;;;20.50;43.90;;;;;;5041572;28;20036;-80
2022/06/10 09:06:56;;;;;;;5.00;1.20;;;20.60;45.40;;;;;;5051456;28;20509;-82
2022/06/10 09:09:26;;;;;;;4.50;1.25;;;20.80;46.10;;;;;;5054289;28;20381;-81
2022/06/10 09:12:26;;;;;;;3.90;1.33;;;21.00;42.70;;;;;;5035001;28;20450;-81
2022/06/10 09:14:58;;;;;;;4.43;1.13;;;21.10;42.90;;;;;;5002402;28;20037;-81
2022/06/10 09:17:50;;;;;;;3.80;1.45;;;21.10;39.20;;;;;;5034799;28;20048;-82
2022/06/10 09:20:33;;;;;;;4.28;1.13;;;21.00;39.90;;;;;;5034412;28;20092;-83
2022/06/10 09:23:15;;;;;;;9.02;1.33;;;21.10;41.10;;;;;;5037345;28;20028;-83
2022/06/10 09:25:49;;;;;;;4.15;1.83;;;21.20;44.10;;;;;;5038596;28;20027;-83
2022/06/10 09:28:15;;;;;;;6.30;1.70;;;21.50;42.70;;;;;;5037992;28;20075;-83
2022/06/10 09:31:07;;;;;;;5.07;1.30;;;21.60;42.70;;;;;;5037506;28;20500;-84
2022/06/10 09:34:23;;;;;;;7.97;2.00;;;21.70;43.60;;;;;;5034819;28;20511;-84
2022/06/10 09:37:10;;;;;;;7.20;1.38;;;21.90;45.30;;;;;;4981795;28;20027;-84
2022/06/10 09:42:44;;;;;;;8.27;1.45;;;22.10;44.50;;;;;;5054520;28;20091;-84
2022/06/10 09:45:24;;;;;;;9.98;1.75;;;22.20;43.80;;;;;;5037532;28;20021;-83
2022/06/10 09:48:11;;;;;;;3.53;1.27;;;22.20;42.40;;;;;;5037279;28;20025;-83
2022/06/10 09:50:58;;;;;;;5.40;1.50;;;21.90;41.70;;;;;;5037462;28;20422;-82
2022/06/10 09:53:33;;;;;;;7.68;1.65;;;21.90;42.00;;;;;;5037688;28;20029;-82
2022/06/10 09:56:17;;;;;;;3.80;1.10;;;21.70;41.10;;;;;;5037584;28;20031;-82
2022/06/10 09:59:13;;;;;;;4.88;1.35;;;21.70;42.20;;;;;;5037205;28;20037;-83
2022/06/10 10:01:41;;;;;;;5.05;1.80;;;21.70;43.30;;;;;;5037743;28;20147;-81
2022/06/10 10:04:15;;;;;;;6.32;1.30;;;21.80;43.10;;;;;;5036947;28;20029;-82
2022/06/10 10:07:03;;;;;;;8.33;1.40;;;21.90;42.20;;;;;;5034982;28;20047;-81
2022/06/10 10:09:51;;;;;;;4.50;1.10;;;21.90;43.40;;;;;;5038406;28;20627;-82
2022/06/10 10:12:31;;;;;;;5.93;1.55;;;22.00;41.70;;;;;;5037444;28;20037;-79
2022/06/10 10:15:33;;;;;;;3.53;1.13;;;22.30;41.80;;;;;;5037201;28;20028;-86
2022/06/10 10:18:26;;;;;;;2.85;1.30;;;22.20;40.70;;;;;;5038660;28;20025;-85
2022/06/10 10:21:11;;;;;;;5.93;1.83;;;22.20;41.70;;;;;;5037441;28;20033;-82
2022/06/10 10:23:50;;;;;;;5.40;1.73;;;22.20;41.60;;;;;;5037284;28;20550;-84
2022/06/10 10:26:16;;;;;;;6.25;1.33;;;22.20;42.00;;;;;;5055166;28;20033;-86
2022/06/10 10:28:42;;;;;;;5.15;1.90;;;22.10;41.80;;;;;;5036882;28;20127;-84
2022/06/10 10:31:23;;;;;;;6.53;1.48;;;22.10;42.20;;;;;;5037352;28;20036;-83
2022/06/10 10:33:49;;;;;;;5.90;1.42;;;22.20;41.80;;;;;;5036168;28;20032;-85
2022/06/10 10:36:26;;;;;;;7.72;1.50;;;22.30;42.10;;;;;;5037078;28;20484;-78
2022/06/10 10:38:53;;;;;;;6.03;1.30;;;22.60;39.60;;;;;;5037228;28;20039;-85
2022/06/10 10:41:21;;;;;;;5.03;1.23;;;22.30;39.10;;;;;;5054280;28;20025;-87
2022/06/10 10:43:51;;;;;;;4.07;1.10;;;22.40;40.30;;;;;;5037876;28;20119;-88
2022/06/10 10:46:26;;;;;;;5.25;1.35;;;22.60;38.00;;;;;;5037456;28;20017;-86
2022/06/10 10:48:53;;;;;;;4.15;1.35;;;22.40;39.10;;;;;;5036431;28;20044;-85
2022/06/10 10:51:23;;;;;;;4.30;1.02;;;22.30;39.40;;;;;;5037300;28;20029;-85
2022/06/10 10:53:55;;;;;;;5.63;1.27;;;22.60;38.40;;;;;;5039496;28;20083;-86
2022/06/10 10:56:31;;;;;;;6.28;1.48;;;22.90;37.20;;;;;;5037755;28;20478;-84
2022/06/10 10:58:57;;;;;;;3.90;1.02;;;23.00;34.90;;;;;;5054851;28;20465;-82
2022/06/10 11:01:45;;;;;;;4.60;1.00;;;23.00;35.30;;;;;;5053345;28;20036;-84
2022/06/10 11:04:32;;;;;;;5.25;1.42;;;23.10;34.80;;;;;;5035866;28;20025;-85
2022/06/10 11:07:03;;;;;;;4.05;1.00;;;22.80;36.50;;;;;;5023129;28;20143;-82
2022/06/10 11:09:29;;;;;;;4.80;1.10;;;23.00;35.60;;;;;;5053473;28;20517;-86
2022/06/10 11:11:56;;;;;;;3.45;0.95;;;23.20;36.90;;;;;;5036382;28;20064;-84
2022/06/10 11:14:32;;;;;;;5.10;1.20;;;23.60;36.10;;;;;;5036298;28;20029;-81
2022/06/10 11:17:22;;;;;;;1.85;0.77;;;23.80;34.40;;;;;;5035939;28;20121;-83
2022/06/10 11:20:00;;;;;;;3.08;1.02;;;23.80;34.70;;;;;;5035566;28;20021;-82
2022/06/10 11:22:28;;;;;;;3.38;0.90;;;23.90;36.70;;;;;;5055670;28;20021;-79
2022/06/10 11:25:16;;;;;;;3.97;0.90;;;23.90;36.40;;;;;;5050236;28;20029;-83
2022/06/10 11:27:48;;;;;;;1.50;0.70;;;24.00;36.50;;;;;;5043303;28;20025;-80
2022/06/10 11:30:13;;;;;;;2.30;0.77;;;23.90;36.50;;;;;;5037142;28;20052;-83
2022/06/10 11:32:48;;;;;;;6.70;1.00;;;23.90;36.30;;;;;;5025883;28;20128;-81
2022/06/10 11:35:39;;;;;;;4.53;1.20;;;24.20;36.30;;;;;;5020643;28;20044;-83
2022/06/10 11:38:22;;;;;;;5.82;2.00;;;24.60;37.60;;;;;;5015333;28;20278;-81
2022/06/10 11:40:52;;;;;;;2.17;1.08;;;25.00;34.60;;;;;;5035632;28;20347;-83
2022/06/10 11:43:27;;;;;;;5.72;0.95;;;25.40;31.00;;;;;;5042376;28;20025;-84
2022/06/10 11:46:12;;;;;;;6.20;1.10;;;25.70;31.60;;;;;;5024841;28;20474;-78
2022/06/10 11:48:50;;;;;;;2.30;0.57;;;26.00;30.70;;;;;;5023869;28;20041;-79
2022/06/10 11:51:30;;;;;;;4.22;1.05;;;26.00;30.90;;;;;;5023683;28;20017;-77
2022/06/10 11:53:59;;;;;;;3.05;1.00;;;25.90;31.90;;;;;;5021673;28;20391;-76
2022/06/10 12:00:13;;;;;;;3.92;0.80;;;25.50;32.50;;;;;;5053197;28;20142;-77
2022/06/10 12:03:15;;;;;;;3.15;1.00;;;25.20;32.40;;;;;;5029384;28;20029;-77
2022/06/10 12:05:50;;;;;;;5.10;1.02;;;25.30;33.50;;;;;;5032706;28;20022;-77
2022/06/10 12:08:47;;;;;;;5.05;1.30;;;25.50;34.60;;;;;;5016902;28;20385;-77
2022/06/10 12:11:37;;;;;;;9.23;1.02;;;26.00;33.50;;;;;;5017554;28;20045;-78
2022/06/10 12:14:38;;;;;;;4.40;0.90;;;26.30;32.20;;;;;;5014668;28;20500;-78
2022/06/10 12:17:30;;;;;;;3.58;0.88;;;26.50;31.00;;;;;;4982174;28;20067;-79
2022/06/10 12:20:00;;;;;;;5.75;1.10;;;26.30;28.30;;;;;;5014305;28;20079;-79
2022/06/10 12:22:27;;;;;;;3.47;0.75;;;25.90;28.30;;;;;;5014270;28;20049;-79
2022/06/10 12:24:55;;;;;;;6.30;1.00;;;26.10;29.50;;;;;;5014660;28;20057;-80
2022/06/10 12:27:30;;;;;;;4.88;0.63;;;26.00;28.60;;;;;;5031528;28;20037;-79
2022/06/10 12:30:40;;;;;;;3.05;0.90;;;25.80;29.10;;;;;;5032657;28;20060;-79
2022/06/10 12:33:14;;;;;;;1.88;0.70;;;26.10;29.20;;;;;;4936086;29;20059;-77
2022/06/10 12:35:43;;;;;;;3.35;1.08;;;26.50;29.90;;;;;;5025368;28;20034;-77
2022/06/10 12:38:22;;;;;;;4.07;1.08;;;26.90;28.00;;;;;;5014927;28;20026;-78
2022/06/10 12:40:59;;;;;;;5.05;1.05;;;26.90;24.70;;;;;;5012772;28;20485;-78
2022/06/10 12:43:35;;;;;;;2.88;0.95;;;26.50;26.00;;;;;;5014242;28;20021;-78
2022/06/10 12:46:22;;;;;;;1.90;0.63;;;26.00;25.80;;;;;;5014379;28;20478;-78
2022/06/10 12:48:48;;;;;;;5.40;0.70;;;25.90;27.80;;;;;;5019255;28;20043;-79
2022/06/10 12:51:14;;;;;;;4.88;0.80;;;26.20;29.00;;;;;;5034089;28;20123;-79
2022/06/10 12:53:57;;;;;;;5.45;1.23;;;26.40;27.50;;;;;;5033862;28;20086;-78
2022/06/10 12:56:34;;;;;;;2.60;0.50;;;26.20;27.60;;;;;;5035225;28;20067;-77
2022/06/10 12:59:06;;;;;;;3.22;0.73;;;25.80;27.30;;;;;;5037955;28;20052;-80
2022/06/10 13:01:32;;;;;;;3.58;1.00;;;25.20;27.80;;;;;;5037728;28;20032;-80
2022/06/10 13:04:04;;;;;;;4.03;0.80;;;24.90;29.10;;;;;;5038026;28;20115;-81
2022/06/10 13:06:31;;;;;;;3.33;0.73;;;25.00;30.90;;;;;;5037689;28;20029;-80
2022/06/10 13:09:22;;;;;;;4.25;1.05;;;25.00;30.10;;;;;;5037525;28;20020;-79
2022/06/10 13:11:53;;;;;;;2.28;0.70;;;25.30;30.80;;;;;;5037439;28;20025;-80
2022/06/10 13:14:34;;;;;;;2.95;1.00;;;25.40;29.90;;;;;;5037334;28;20075;-80
2022/06/10 13:16:59;;;;;;;3.25;0.82;;;26.00;29.40;;;;;;5037483;28;20107;-78
2022/06/10 13:19:36;;;;;;;3.13;0.90;;;26.10;28.60;;;;;;5037337;28;20423;-79
2022/06/10 13:22:17;;;;;;;3.35;0.80;;;25.40;29.20;;;;;;5037714;28;20025;-79
2022/06/10 13:24:52;;;;;;;3.67;0.90;;;24.80;29.60;;;;;;5036602;28;20025;-80
2022/06/10 13:27:25;;;;;;;1.35;0.70;;;24.30;31.50;;;;;;5037161;28;20066;-79
2022/06/10 13:29:54;;;;;;;1.52;0.65;;;23.80;32.50;;;;;;5037303;28;20033;-79
2022/06/10 13:32:20;;;;;;;5.32;1.15;;;23.70;32.30;;;;;;5037059;28;20071;-79
2022/06/10 13:34:54;;;;;;;3.90;0.80;;;23.40;33.70;;;;;;5036954;28;20112;-78
2022/06/10 13:37:23;;;;;;;3.05;0.93;;;23.20;34.30;;;;;;5034865;28;20021;-80